sensor_id;sensor_type;location;lat;lon;timestamp;temperature;humidity
26107;DHT22;13866;50.748;12.630;2023-08-07T00:02:25;13.20;99.90
26107;DHT22;13866;50.748;12.630;2023-08-07T00:04:50;13.10;99.90
26107;DHT22;13866;50.748;12.630;2023-08-07T00:07:16;13.10;99.90
26107;DHT22;13866;50.748;12.630;2023-08-07T00:09:41;13.10;99.90
26107;DHT22;13866;50.748;12.630;2023-08-07T00:12:07;13.10;99.90
26107;DHT22;13866;50.748;12.630;2023-08-07T00:14:32;13.10;99.90
26107;DHT22;13866;50.748;12.630;2023-08-07T00:16:58;13.20;99.90
26107;DHT22;13866;50.748;12.630;2023-08-07T00:19:23;13.10;99.90
26107;DHT22;13866;50.748;12.630;2023-08-07T00:21:49;13.10;99.90
26107;DHT22;13866;50.748;12.630;2023-08-07T00:24:14;13.20;99.90
26107;DHT22;13866;50.748;12.630;2023-08-07T00:26:40;13.10;99.90
26107;DHT22;13866;50.748;12.630;2023-08-07T00:29:05;13.10;99.90
26107;DHT22;13866;50.748;12.630;2023-08-07T00:31:31;13.10;99.90
26107;DHT22;13866;50.748;12.630;2023-08-07T00:33:57;13.10;99.90
26107;DHT22;13866;50.748;12.630;2023-08-07T00:36:23;13.10;99.90
26107;DHT22;13866;50.748;12.630;2023-08-07T00:38:50;13.10;99.90
26107;DHT22;13866;50.748;12.630;2023-08-07T00:41:16;13.20;99.90
26107;DHT22;13866;50.748;12.630;2023-08-07T00:43:42;13.10;99.90
26107;DHT22;13866;50.748;12.630;2023-08-07T00:46:07;13.20;99.90
26107;DHT22;13866;50.748;12.630;2023-08-07T00:48:33;13.20;99.90
26107;DHT22;13866;50.748;12.630;2023-08-07T00:50:59;13.10;99.90
26107;DHT22;13866;50.748;12.630;2023-08-07T00:53:25;13.10;99.90
26107;DHT22;13866;50.748;12.630;2023-08-07T00:55:50;13.10;99.90
26107;DHT22;13866;50.748;12.630;2023-08-07T00:58:16;13.10;99.90
26107;DHT22;13866;50.748;12.630;2023-08-07T01:00:42;13.10;99.90
26107;DHT22;13866;50.748;12.630;2023-08-07T01:03:08;13.10;99.90
26107;DHT22;13866;50.748;12.630;2023-08-07T01:05:34;13.10;99.90
26107;DHT22;13866;50.748;12.630;2023-08-07T01:07:59;13.10;99.90
26107;DHT22;13866;50.748;12.630;2023-08-07T01:13:29;13.10;99.90
26107;DHT22;13866;50.748;12.630;2023-08-07T01:16:00;13.10;99.90
26107;DHT22;13866;50.748;12.630;2023-08-07T01:18:27;13.10;99.90
26107;DHT22;13866;50.748;12.630;2023-08-07T01:20:53;13.10;99.90
26107;DHT22;13866;50.748;12.630;2023-08-07T01:23:19;13.10;99.90
26107;DHT22;13866;50.748;12.630;2023-08-07T01:25:44;13.10;99.90
26107;DHT22;13866;50.748;12.630;2023-08-07T01:28:18;13.10;99.90
26107;DHT22;13866;50.748;12.630;2023-08-07T01:30:48;13.10;99.90
26107;DHT22;13866;50.748;12.630;2023-08-07T01:33:24;13.10;99.90
26107;DHT22;13866;50.748;12.630;2023-08-07T01:35:53;13.10;99.90
26107;DHT22;13866;50.748;12.630;2023-08-07T01:38:24;13.10;99.90
26107;DHT22;13866;50.748;12.630;2023-08-07T01:40:50;13.10;99.90
26107;DHT22;13866;50.748;12.630;2023-08-07T01:43:17;13.00;99.90
26107;DHT22;13866;50.748;12.630;2023-08-07T01:45:44;13.00;99.90
26107;DHT22;13866;50.748;12.630;2023-08-07T01:48:09;13.00;99.90
26107;DHT22;13866;50.748;12.630;2023-08-07T01:50:35;13.00;99.90
26107;DHT22;13866;50.748;12.630;2023-08-07T01:53:01;13.00;99.90
26107;DHT22;13866;50.748;12.630;2023-08-07T01:55:27;13.00;99.90
26107;DHT22;13866;50.748;12.630;2023-08-07T01:57:53;13.00;99.90
26107;DHT22;13866;50.748;12.630;2023-08-07T02:00:19;13.00;99.90
26107;DHT22;13866;50.748;12.630;2023-08-07T02:02:44;13.00;99.90
26107;DHT22;13866;50.748;12.630;2023-08-07T02:05:12;13.00;99.90
26107;DHT22;13866;50.748;12.630;2023-08-07T02:07:37;13.00;99.90
26107;DHT22;13866;50.748;12.630;2023-08-07T02:10:03;13.00;99.90
26107;DHT22;13866;50.748;12.630;2023-08-07T02:12:29;13.00;99.90
26107;DHT22;13866;50.748;12.630;2023-08-07T02:14:57;13.00;99.90
26107;DHT22;13866;50.748;12.630;2023-08-07T02:17:24;12.90;99.90
26107;DHT22;13866;50.748;12.630;2023-08-07T02:19:50;12.90;99.90
26107;DHT22;13866;50.748;12.630;2023-08-07T02:22:15;12.90;99.90
26107;DHT22;13866;50.748;12.630;2023-08-07T02:24:41;12.90;99.90
26107;DHT22;13866;50.748;12.630;2023-08-07T02:27:07;12.90;99.90
26107;DHT22;13866;50.748;12.630;2023-08-07T02:29:32;12.90;99.90
26107;DHT22;13866;50.748;12.630;2023-08-07T02:32:00;12.90;99.90
26107;DHT22;13866;50.748;12.630;2023-08-07T02:34:27;12.90;99.90
26107;DHT22;13866;50.748;12.630;2023-08-07T02:36:52;12.90;99.90
26107;DHT22;13866;50.748;12.630;2023-08-07T02:39:18;12.90;99.90
26107;DHT22;13866;50.748;12.630;2023-08-07T02:41:43;12.90;99.90
26107;DHT22;13866;50.748;12.630;2023-08-07T02:44:09;12.90;99.90
26107;DHT22;13866;50.748;12.630;2023-08-07T02:46:34;12.90;99.90
26107;DHT22;13866;50.748;12.630;2023-08-07T02:49:01;12.90;99.90
26107;DHT22;13866;50.748;12.630;2023-08-07T02:51:27;12.90;99.90
26107;DHT22;13866;50.748;12.630;2023-08-07T02:53:52;13.00;99.90
26107;DHT22;13866;50.748;12.630;2023-08-07T02:56:18;13.00;99.90
26107;DHT22;13866;50.748;12.630;2023-08-07T02:58:43;13.00;99.90
26107;DHT22;13866;50.748;12.630;2023-08-07T03:01:09;13.00;99.90
26107;DHT22;13866;50.748;12.630;2023-08-07T03:03:34;13.00;99.90
26107;DHT22;13866;50.748;12.630;2023-08-07T03:06:00;13.00;99.90
26107;DHT22;13866;50.748;12.630;2023-08-07T03:08:26;13.00;99.90
26107;DHT22;13866;50.748;12.630;2023-08-07T03:10:53;13.00;99.90
26107;DHT22;13866;50.748;12.630;2023-08-07T03:13:19;13.00;99.90
26107;DHT22;13866;50.748;12.630;2023-08-07T03:15:45;13.00;99.90
26107;DHT22;13866;50.748;12.630;2023-08-07T03:18:10;13.00;99.90
26107;DHT22;13866;50.748;12.630;2023-08-07T03:20:37;12.90;99.90
26107;DHT22;13866;50.748;12.630;2023-08-07T03:23:03;12.90;99.90
26107;DHT22;13866;50.748;12.630;2023-08-07T03:25:28;12.90;99.90
26107;DHT22;13866;50.748;12.630;2023-08-07T03:27:54;12.90;99.90
26107;DHT22;13866;50.748;12.630;2023-08-07T03:30:19;12.90;99.90
26107;DHT22;13866;50.748;12.630;2023-08-07T03:32:45;12.90;99.90
26107;DHT22;13866;50.748;12.630;2023-08-07T03:35:10;12.90;99.90
26107;DHT22;13866;50.748;12.630;2023-08-07T03:37:36;12.90;99.90
26107;DHT22;13866;50.748;12.630;2023-08-07T03:40:02;12.90;99.90
26107;DHT22;13866;50.748;12.630;2023-08-07T03:42:28;12.90;99.90
26107;DHT22;13866;50.748;12.630;2023-08-07T03:44:53;12.90;99.90
26107;DHT22;13866;50.748;12.630;2023-08-07T03:47:19;12.90;99.90
26107;DHT22;13866;50.748;12.630;2023-08-07T03:49:44;12.90;99.90
26107;DHT22;13866;50.748;12.630;2023-08-07T03:52:10;12.90;99.90
26107;DHT22;13866;50.748;12.630;2023-08-07T03:54:35;12.80;99.90
26107;DHT22;13866;50.748;12.630;2023-08-07T03:57:01;12.80;99.90
26107;DHT22;13866;50.748;12.630;2023-08-07T03:59:26;12.80;99.90
26107;DHT22;13866;50.748;12.630;2023-08-07T04:01:52;12.80;99.90
26107;DHT22;13866;50.748;12.630;2023-08-07T04:04:17;12.80;99.90
26107;DHT22;13866;50.748;12.630;2023-08-07T04:06:43;12.80;99.90
26107;DHT22;13866;50.748;12.630;2023-08-07T04:09:09;12.80;99.90
26107;DHT22;13866;50.748;12.630;2023-08-07T04:11:35;12.80;99.90
26107;DHT22;13866;50.748;12.630;2023-08-07T04:14:01;12.80;99.90
26107;DHT22;13866;50.748;12.630;2023-08-07T04:16:27;12.70;99.90
26107;DHT22;13866;50.748;12.630;2023-08-07T04:18:52;12.70;99.90
26107;DHT22;13866;50.748;12.630;2023-08-07T04:21:18;12.70;99.90
26107;DHT22;13866;50.748;12.630;2023-08-07T04:23:44;12.70;99.90
26107;DHT22;13866;50.748;12.630;2023-08-07T04:26:09;12.70;99.90
26107;DHT22;13866;50.748;12.630;2023-08-07T04:28:35;12.70;99.90
26107;DHT22;13866;50.748;12.630;2023-08-07T04:31:00;12.60;99.90
26107;DHT22;13866;50.748;12.630;2023-08-07T04:33:26;12.60;99.90
26107;DHT22;13866;50.748;12.630;2023-08-07T04:35:51;12.60;99.90
26107;DHT22;13866;50.748;12.630;2023-08-07T04:38:19;12.60;99.90
26107;DHT22;13866;50.748;12.630;2023-08-07T04:40:46;12.70;99.90
26107;DHT22;13866;50.748;12.630;2023-08-07T04:43:12;12.70;99.90
26107;DHT22;13866;50.748;12.630;2023-08-07T04:45:37;12.60;99.90
26107;DHT22;13866;50.748;12.630;2023-08-07T04:48:06;12.60;99.90
26107;DHT22;13866;50.748;12.630;2023-08-07T04:50:31;12.60;99.90
26107;DHT22;13866;50.748;12.630;2023-08-07T04:52:57;12.60;99.90
26107;DHT22;13866;50.748;12.630;2023-08-07T04:55:22;12.60;99.90
26107;DHT22;13866;50.748;12.630;2023-08-07T04:57:48;12.60;99.90
26107;DHT22;13866;50.748;12.630;2023-08-07T05:00:15;12.60;99.90
26107;DHT22;13866;50.748;12.630;2023-08-07T05:02:41;12.60;99.90
26107;DHT22;13866;50.748;12.630;2023-08-07T05:05:06;12.60;99.90
26107;DHT22;13866;50.748;12.630;2023-08-07T05:07:33;12.60;99.90
26107;DHT22;13866;50.748;12.630;2023-08-07T05:10:01;12.60;99.90
26107;DHT22;13866;50.748;12.630;2023-08-07T05:12:27;12.60;99.90
26107;DHT22;13866;50.748;12.630;2023-08-07T05:14:53;12.60;99.90
26107;DHT22;13866;50.748;12.630;2023-08-07T05:17:18;12.60;99.90
26107;DHT22;13866;50.748;12.630;2023-08-07T05:19:44;12.50;99.90
26107;DHT22;13866;50.748;12.630;2023-08-07T05:22:09;12.50;99.90
26107;DHT22;13866;50.748;12.630;2023-08-07T05:24:35;12.50;99.90
26107;DHT22;13866;50.748;12.630;2023-08-07T05:27:05;12.60;99.90
26107;DHT22;13866;50.748;12.630;2023-08-07T05:29:31;12.60;99.90
26107;DHT22;13866;50.748;12.630;2023-08-07T05:31:57;12.60;99.90
26107;DHT22;13866;50.748;12.630;2023-08-07T05:34:22;12.60;99.90
26107;DHT22;13866;50.748;12.630;2023-08-07T05:36:47;12.50;99.90
26107;DHT22;13866;50.748;12.630;2023-08-07T05:39:14;12.60;99.90
26107;DHT22;13866;50.748;12.630;2023-08-07T05:41:39;12.60;99.90
26107;DHT22;13866;50.748;12.630;2023-08-07T05:44:05;12.50;99.90
26107;DHT22;13866;50.748;12.630;2023-08-07T05:46:31;12.50;99.90
26107;DHT22;13866;50.748;12.630;2023-08-07T05:48:56;12.50;99.90
26107;DHT22;13866;50.748;12.630;2023-08-07T05:51:22;12.60;99.90
26107;DHT22;13866;50.748;12.630;2023-08-07T05:53:47;12.60;99.90
26107;DHT22;13866;50.748;12.630;2023-08-07T05:56:13;12.50;99.90
26107;DHT22;13866;50.748;12.630;2023-08-07T05:58:38;12.50;99.90
26107;DHT22;13866;50.748;12.630;2023-08-07T06:01:05;12.50;99.90
26107;DHT22;13866;50.748;12.630;2023-08-07T06:03:30;12.50;99.90
26107;DHT22;13866;50.748;12.630;2023-08-07T06:05:57;12.50;99.90
26107;DHT22;13866;50.748;12.630;2023-08-07T06:08:22;12.50;99.90
26107;DHT22;13866;50.748;12.630;2023-08-07T06:10:48;12.50;99.90
26107;DHT22;13866;50.748;12.630;2023-08-07T06:13:13;12.50;99.90
26107;DHT22;13866;50.748;12.630;2023-08-07T06:15:39;12.50;99.90
26107;DHT22;13866;50.748;12.630;2023-08-07T06:18:05;12.50;99.90
26107;DHT22;13866;50.748;12.630;2023-08-07T06:20:30;12.50;99.90
26107;DHT22;13866;50.748;12.630;2023-08-07T06:22:56;12.60;99.90
26107;DHT22;13866;50.748;12.630;2023-08-07T06:25:21;12.60;99.90
26107;DHT22;13866;50.748;12.630;2023-08-07T06:27:47;12.60;99.90
26107;DHT22;13866;50.748;12.630;2023-08-07T06:30:12;12.70;99.90
26107;DHT22;13866;50.748;12.630;2023-08-07T06:32:39;12.60;99.90
26107;DHT22;13866;50.748;12.630;2023-08-07T06:35:05;12.70;99.90
26107;DHT22;13866;50.748;12.630;2023-08-07T06:37:31;12.80;99.90
26107;DHT22;13866;50.748;12.630;2023-08-07T06:39:56;12.80;99.90
26107;DHT22;13866;50.748;12.630;2023-08-07T06:42:22;12.80;99.90
26107;DHT22;13866;50.748;12.630;2023-08-07T06:44:47;12.90;99.90
26107;DHT22;13866;50.748;12.630;2023-08-07T06:47:13;12.90;99.90
26107;DHT22;13866;50.748;12.630;2023-08-07T06:49:39;12.90;99.90
26107;DHT22;13866;50.748;12.630;2023-08-07T06:52:04;12.80;99.90
26107;DHT22;13866;50.748;12.630;2023-08-07T06:54:30;12.70;99.90
26107;DHT22;13866;50.748;12.630;2023-08-07T06:56:56;12.60;99.90
26107;DHT22;13866;50.748;12.630;2023-08-07T06:59:21;12.60;99.90
26107;DHT22;13866;50.748;12.630;2023-08-07T07:01:47;12.60;99.90
26107;DHT22;13866;50.748;12.630;2023-08-07T07:04:13;12.60;99.90
26107;DHT22;13866;50.748;12.630;2023-08-07T07:06:38;12.60;99.90
26107;DHT22;13866;50.748;12.630;2023-08-07T07:09:04;12.60;99.90
26107;DHT22;13866;50.748;12.630;2023-08-07T07:11:30;12.60;99.90
26107;DHT22;13866;50.748;12.630;2023-08-07T07:13:55;12.50;99.90
26107;DHT22;13866;50.748;12.630;2023-08-07T07:16:21;12.50;99.90
26107;DHT22;13866;50.748;12.630;2023-08-07T07:18:53;12.60;99.90
26107;DHT22;13866;50.748;12.630;2023-08-07T07:21:21;12.60;99.90
26107;DHT22;13866;50.748;12.630;2023-08-07T07:23:46;12.60;99.90
26107;DHT22;13866;50.748;12.630;2023-08-07T07:26:12;12.70;99.90
26107;DHT22;13866;50.748;12.630;2023-08-07T07:28:37;12.80;99.90
26107;DHT22;13866;50.748;12.630;2023-08-07T07:31:03;12.80;99.90
26107;DHT22;13866;50.748;12.630;2023-08-07T07:33:29;12.90;99.90
26107;DHT22;13866;50.748;12.630;2023-08-07T07:35:55;13.00;99.90
26107;DHT22;13866;50.748;12.630;2023-08-07T07:38:20;13.00;99.90
26107;DHT22;13866;50.748;12.630;2023-08-07T07:40:47;13.10;99.90
26107;DHT22;13866;50.748;12.630;2023-08-07T07:43:12;13.10;99.90
26107;DHT22;13866;50.748;12.630;2023-08-07T07:45:38;13.20;99.90
26107;DHT22;13866;50.748;12.630;2023-08-07T07:48:04;13.20;99.90
26107;DHT22;13866;50.748;12.630;2023-08-07T07:50:31;13.10;99.90
26107;DHT22;13866;50.748;12.630;2023-08-07T07:52:57;13.00;99.90
26107;DHT22;13866;50.748;12.630;2023-08-07T07:55:22;12.90;99.90
26107;DHT22;13866;50.748;12.630;2023-08-07T07:57:48;12.90;99.90
26107;DHT22;13866;50.748;12.630;2023-08-07T08:00:14;12.90;99.90
26107;DHT22;13866;50.748;12.630;2023-08-07T08:02:40;12.80;99.90
26107;DHT22;13866;50.748;12.630;2023-08-07T08:05:08;12.80;99.90
26107;DHT22;13866;50.748;12.630;2023-08-07T08:07:37;12.80;99.90
26107;DHT22;13866;50.748;12.630;2023-08-07T08:10:07;12.80;99.90
26107;DHT22;13866;50.748;12.630;2023-08-07T08:12:34;12.90;99.90
26107;DHT22;13866;50.748;12.630;2023-08-07T08:15:00;13.00;99.90
26107;DHT22;13866;50.748;12.630;2023-08-07T08:17:26;13.00;99.90
26107;DHT22;13866;50.748;12.630;2023-08-07T08:19:51;13.00;99.90
26107;DHT22;13866;50.748;12.630;2023-08-07T08:22:17;13.00;99.90
26107;DHT22;13866;50.748;12.630;2023-08-07T08:24:43;13.00;99.90
26107;DHT22;13866;50.748;12.630;2023-08-07T08:27:08;13.00;99.90
26107;DHT22;13866;50.748;12.630;2023-08-07T08:29:34;13.00;99.90
26107;DHT22;13866;50.748;12.630;2023-08-07T08:32:00;12.90;99.90
26107;DHT22;13866;50.748;12.630;2023-08-07T08:34:26;12.90;99.90
26107;DHT22;13866;50.748;12.630;2023-08-07T08:36:52;12.90;99.90
26107;DHT22;13866;50.748;12.630;2023-08-07T08:39:18;12.90;99.90
26107;DHT22;13866;50.748;12.630;2023-08-07T08:41:46;13.00;99.90
26107;DHT22;13866;50.748;12.630;2023-08-07T08:44:14;12.90;99.90
26107;DHT22;13866;50.748;12.630;2023-08-07T08:46:42;13.00;99.90
26107;DHT22;13866;50.748;12.630;2023-08-07T08:49:08;13.00;99.90
26107;DHT22;13866;50.748;12.630;2023-08-07T08:51:35;13.00;99.90
26107;DHT22;13866;50.748;12.630;2023-08-07T08:54:01;13.00;99.90
26107;DHT22;13866;50.748;12.630;2023-08-07T08:56:29;13.10;99.90
26107;DHT22;13866;50.748;12.630;2023-08-07T08:58:55;13.10;99.90
26107;DHT22;13866;50.748;12.630;2023-08-07T09:01:21;13.20;99.90
26107;DHT22;13866;50.748;12.630;2023-08-07T09:03:48;13.20;99.90
26107;DHT22;13866;50.748;12.630;2023-08-07T09:06:13;13.10;99.90
26107;DHT22;13866;50.748;12.630;2023-08-07T09:08:43;13.10;99.90
26107;DHT22;13866;50.748;12.630;2023-08-07T09:11:10;13.20;99.90
26107;DHT22;13866;50.748;12.630;2023-08-07T09:13:37;13.30;99.90
26107;DHT22;13866;50.748;12.630;2023-08-07T09:16:04;13.50;99.90
26107;DHT22;13866;50.748;12.630;2023-08-07T09:18:31;13.50;99.90
26107;DHT22;13866;50.748;12.630;2023-08-07T09:20:57;13.60;99.90
26107;DHT22;13866;50.748;12.630;2023-08-07T09:23:24;13.60;99.90
26107;DHT22;13866;50.748;12.630;2023-08-07T09:25:59;13.60;99.90
26107;DHT22;13866;50.748;12.630;2023-08-07T09:28:26;13.50;99.90
26107;DHT22;13866;50.748;12.630;2023-08-07T09:30:52;13.50;99.90
26107;DHT22;13866;50.748;12.630;2023-08-07T09:33:27;13.60;99.90
26107;DHT22;13866;50.748;12.630;2023-08-07T09:35:57;13.60;99.90
26107;DHT22;13866;50.748;12.630;2023-08-07T09:38:22;13.70;99.90
26107;DHT22;13866;50.748;12.630;2023-08-07T09:40:49;13.80;99.90
26107;DHT22;13866;50.748;12.630;2023-08-07T09:43:21;13.80;99.90
26107;DHT22;13866;50.748;12.630;2023-08-07T09:45:48;13.90;99.90
26107;DHT22;13866;50.748;12.630;2023-08-07T09:48:22;13.80;99.90
26107;DHT22;13866;50.748;12.630;2023-08-07T09:50:47;13.90;99.90
26107;DHT22;13866;50.748;12.630;2023-08-07T09:53:13;13.90;99.90
26107;DHT22;13866;50.748;12.630;2023-08-07T09:55:38;14.00;99.90
26107;DHT22;13866;50.748;12.630;2023-08-07T09:58:07;14.10;99.90
26107;DHT22;13866;50.748;12.630;2023-08-07T10:00:34;14.20;99.90
26107;DHT22;13866;50.748;12.630;2023-08-07T10:03:01;14.40;99.90
26107;DHT22;13866;50.748;12.630;2023-08-07T10:05:27;14.50;99.90
26107;DHT22;13866;50.748;12.630;2023-08-07T10:07:53;14.50;99.90
26107;DHT22;13866;50.748;12.630;2023-08-07T10:10:20;14.50;99.90
26107;DHT22;13866;50.748;12.630;2023-08-07T10:12:46;14.70;99.90
26107;DHT22;13866;50.748;12.630;2023-08-07T10:15:14;14.80;99.90
26107;DHT22;13866;50.748;12.630;2023-08-07T10:17:41;14.90;99.90
26107;DHT22;13866;50.748;12.630;2023-08-07T10:20:07;15.00;99.90
26107;DHT22;13866;50.748;12.630;2023-08-07T10:22:34;15.10;99.90
26107;DHT22;13866;50.748;12.630;2023-08-07T10:25:03;15.20;99.90
26107;DHT22;13866;50.748;12.630;2023-08-07T10:27:32;15.10;99.90
26107;DHT22;13866;50.748;12.630;2023-08-07T10:30:00;15.20;99.90
26107;DHT22;13866;50.748;12.630;2023-08-07T10:32:27;15.30;99.90
26107;DHT22;13866;50.748;12.630;2023-08-07T10:34:53;15.20;99.90
26107;DHT22;13866;50.748;12.630;2023-08-07T10:37:43;15.00;99.90
26107;DHT22;13866;50.748;12.630;2023-08-07T10:40:11;14.80;99.90
26107;DHT22;13866;50.748;12.630;2023-08-07T10:42:59;14.70;99.90
26107;DHT22;13866;50.748;12.630;2023-08-07T10:45:28;14.70;99.90
26107;DHT22;13866;50.748;12.630;2023-08-07T10:48:12;14.70;99.90
26107;DHT22;13866;50.748;12.630;2023-08-07T10:50:55;14.70;99.90
26107;DHT22;13866;50.748;12.630;2023-08-07T10:53:45;14.80;99.90
26107;DHT22;13866;50.748;12.630;2023-08-07T10:56:34;14.80;99.90
26107;DHT22;13866;50.748;12.630;2023-08-07T10:59:08;14.70;99.90
26107;DHT22;13866;50.748;12.630;2023-08-07T11:01:40;14.60;99.90
26107;DHT22;13866;50.748;12.630;2023-08-07T11:04:07;14.50;99.90
26107;DHT22;13866;50.748;12.630;2023-08-07T11:06:34;14.70;99.90
26107;DHT22;13866;50.748;12.630;2023-08-07T11:09:00;14.70;99.90
26107;DHT22;13866;50.748;12.630;2023-08-07T11:11:28;14.70;99.90
26107;DHT22;13866;50.748;12.630;2023-08-07T11:13:54;14.90;99.90
26107;DHT22;13866;50.748;12.630;2023-08-07T11:16:20;15.10;99.90
26107;DHT22;13866;50.748;12.630;2023-08-07T11:18:49;15.10;99.90
26107;DHT22;13866;50.748;12.630;2023-08-07T11:21:15;15.10;99.90
26107;DHT22;13866;50.748;12.630;2023-08-07T11:23:40;15.10;99.90
26107;DHT22;13866;50.748;12.630;2023-08-07T11:26:07;15.30;99.90
26107;DHT22;13866;50.748;12.630;2023-08-07T11:28:33;15.70;99.90
26107;DHT22;13866;50.748;12.630;2023-08-07T11:31:00;16.10;99.90
26107;DHT22;13866;50.748;12.630;2023-08-07T11:33:26;16.40;99.90
26107;DHT22;13866;50.748;12.630;2023-08-07T11:35:53;16.50;99.90
26107;DHT22;13866;50.748;12.630;2023-08-07T11:41:01;17.00;99.90
26107;DHT22;13866;50.748;12.630;2023-08-07T11:43:28;17.10;99.90
26107;DHT22;13866;50.748;12.630;2023-08-07T11:45:55;17.00;99.90
26107;DHT22;13866;50.748;12.630;2023-08-07T11:48:27;17.00;99.90
26107;DHT22;13866;50.748;12.630;2023-08-07T11:50:53;16.40;99.90
26107;DHT22;13866;50.748;12.630;2023-08-07T11:53:23;16.10;99.90
26107;DHT22;13866;50.748;12.630;2023-08-07T11:58:36;15.30;99.90
26107;DHT22;13866;50.748;12.630;2023-08-07T12:03:34;14.70;99.90
26107;DHT22;13866;50.748;12.630;2023-08-07T12:06:03;14.60;99.90
26107;DHT22;13866;50.748;12.630;2023-08-07T12:11:03;15.10;99.90
26107;DHT22;13866;50.748;12.630;2023-08-07T12:13:30;15.80;99.90
26107;DHT22;13866;50.748;12.630;2023-08-07T12:15:57;15.90;99.90
26107;DHT22;13866;50.748;12.630;2023-08-07T12:18:24;15.90;99.90
26107;DHT22;13866;50.748;12.630;2023-08-07T12:20:51;15.80;99.90
26107;DHT22;13866;50.748;12.630;2023-08-07T12:23:20;15.80;99.90
26107;DHT22;13866;50.748;12.630;2023-08-07T12:25:46;15.60;99.90
26107;DHT22;13866;50.748;12.630;2023-08-07T12:28:12;15.50;99.90
26107;DHT22;13866;50.748;12.630;2023-08-07T12:30:38;15.50;99.90
26107;DHT22;13866;50.748;12.630;2023-08-07T12:33:04;15.60;99.90
26107;DHT22;13866;50.748;12.630;2023-08-07T12:35:34;15.70;99.90
26107;DHT22;13866;50.748;12.630;2023-08-07T12:38:00;15.70;99.90
26107;DHT22;13866;50.748;12.630;2023-08-07T12:40:28;15.70;99.90
26107;DHT22;13866;50.748;12.630;2023-08-07T12:42:53;15.90;99.90
26107;DHT22;13866;50.748;12.630;2023-08-07T12:45:19;15.80;99.90
26107;DHT22;13866;50.748;12.630;2023-08-07T12:47:45;16.00;99.90
26107;DHT22;13866;50.748;12.630;2023-08-07T12:50:11;16.00;99.90
26107;DHT22;13866;50.748;12.630;2023-08-07T12:52:37;15.70;99.90
26107;DHT22;13866;50.748;12.630;2023-08-07T12:55:03;15.60;99.90
26107;DHT22;13866;50.748;12.630;2023-08-07T12:57:29;15.50;99.90
26107;DHT22;13866;50.748;12.630;2023-08-07T12:59:54;15.50;99.90
26107;DHT22;13866;50.748;12.630;2023-08-07T13:02:20;15.90;99.90
26107;DHT22;13866;50.748;12.630;2023-08-07T13:04:45;16.10;99.90
26107;DHT22;13866;50.748;12.630;2023-08-07T13:07:11;16.20;99.90
26107;DHT22;13866;50.748;12.630;2023-08-07T13:09:37;16.30;99.90
26107;DHT22;13866;50.748;12.630;2023-08-07T13:12:03;16.50;99.90
26107;DHT22;13866;50.748;12.630;2023-08-07T13:14:28;16.80;99.90
26107;DHT22;13866;50.748;12.630;2023-08-07T13:16:54;17.20;99.90
26107;DHT22;13866;50.748;12.630;2023-08-07T13:19:19;17.10;99.90
26107;DHT22;13866;50.748;12.630;2023-08-07T13:21:45;17.20;99.90
26107;DHT22;13866;50.748;12.630;2023-08-07T13:24:10;17.10;99.90
26107;DHT22;13866;50.748;12.630;2023-08-07T13:26:36;17.00;99.90
26107;DHT22;13866;50.748;12.630;2023-08-07T13:29:04;17.20;99.90
26107;DHT22;13866;50.748;12.630;2023-08-07T13:31:29;17.20;99.90
26107;DHT22;13866;50.748;12.630;2023-08-07T13:33:55;17.00;99.90
26107;DHT22;13866;50.748;12.630;2023-08-07T13:36:20;16.90;99.90
26107;DHT22;13866;50.748;12.630;2023-08-07T13:38:46;17.00;99.90
26107;DHT22;13866;50.748;12.630;2023-08-07T13:41:11;16.90;99.90
26107;DHT22;13866;50.748;12.630;2023-08-07T13:43:37;16.80;99.90
26107;DHT22;13866;50.748;12.630;2023-08-07T13:46:03;16.60;99.90
26107;DHT22;13866;50.748;12.630;2023-08-07T13:48:28;16.30;99.90
26107;DHT22;13866;50.748;12.630;2023-08-07T13:50:54;16.20;99.90
26107;DHT22;13866;50.748;12.630;2023-08-07T13:53:19;16.00;99.90
26107;DHT22;13866;50.748;12.630;2023-08-07T13:55:46;15.80;99.90
26107;DHT22;13866;50.748;12.630;2023-08-07T13:58:12;15.40;99.90
26107;DHT22;13866;50.748;12.630;2023-08-07T14:00:41;15.00;99.90
26107;DHT22;13866;50.748;12.630;2023-08-07T14:03:08;14.70;99.90
26107;DHT22;13866;50.748;12.630;2023-08-07T14:05:35;14.50;99.90
26107;DHT22;13866;50.748;12.630;2023-08-07T14:08:00;14.60;99.90
26107;DHT22;13866;50.748;12.630;2023-08-07T14:10:26;14.80;99.90
26107;DHT22;13866;50.748;12.630;2023-08-07T14:12:51;14.90;99.90
26107;DHT22;13866;50.748;12.630;2023-08-07T14:15:18;15.00;99.90
26107;DHT22;13866;50.748;12.630;2023-08-07T14:17:43;15.10;99.90
26107;DHT22;13866;50.748;12.630;2023-08-07T14:20:09;15.10;99.90
26107;DHT22;13866;50.748;12.630;2023-08-07T14:22:36;15.00;99.90
26107;DHT22;13866;50.748;12.630;2023-08-07T14:25:02;15.00;99.90
26107;DHT22;13866;50.748;12.630;2023-08-07T14:27:28;14.90;99.90
26107;DHT22;13866;50.748;12.630;2023-08-07T14:29:54;14.90;99.90
26107;DHT22;13866;50.748;12.630;2023-08-07T14:32:19;14.80;99.90
26107;DHT22;13866;50.748;12.630;2023-08-07T14:34:45;14.80;99.90
26107;DHT22;13866;50.748;12.630;2023-08-07T14:37:13;14.70;99.90
26107;DHT22;13866;50.748;12.630;2023-08-07T14:39:38;14.90;99.90
26107;DHT22;13866;50.748;12.630;2023-08-07T14:42:04;14.90;99.90
26107;DHT22;13866;50.748;12.630;2023-08-07T14:44:29;14.90;99.90
26107;DHT22;13866;50.748;12.630;2023-08-07T14:46:55;14.70;99.90
26107;DHT22;13866;50.748;12.630;2023-08-07T14:49:21;14.60;99.90
26107;DHT22;13866;50.748;12.630;2023-08-07T14:51:46;14.50;99.90
26107;DHT22;13866;50.748;12.630;2023-08-07T14:54:12;14.70;99.90
26107;DHT22;13866;50.748;12.630;2023-08-07T14:56:37;14.90;99.90
26107;DHT22;13866;50.748;12.630;2023-08-07T14:59:03;15.10;99.90
26107;DHT22;13866;50.748;12.630;2023-08-07T15:01:28;15.30;99.90
26107;DHT22;13866;50.748;12.630;2023-08-07T15:03:54;15.50;99.90
26107;DHT22;13866;50.748;12.630;2023-08-07T15:06:19;15.60;99.90
26107;DHT22;13866;50.748;12.630;2023-08-07T15:08:45;15.60;99.90
26107;DHT22;13866;50.748;12.630;2023-08-07T15:11:11;15.60;99.90
26107;DHT22;13866;50.748;12.630;2023-08-07T15:13:36;15.60;99.90
26107;DHT22;13866;50.748;12.630;2023-08-07T15:16:02;15.80;99.90
26107;DHT22;13866;50.748;12.630;2023-08-07T15:18:27;15.90;99.90
26107;DHT22;13866;50.748;12.630;2023-08-07T15:20:53;16.20;99.90
26107;DHT22;13866;50.748;12.630;2023-08-07T15:23:18;16.20;99.90
26107;DHT22;13866;50.748;12.630;2023-08-07T15:25:44;16.10;99.90